sensor_id;sensor_type;location;lat;lon;timestamp;P1;durP1;ratioP1;P2;durP2;ratioP2
11131;SDS011;5620;53.570;9.718;2023-02-28T00:01:25;4.40;;;1.40;;
11131;SDS011;5620;53.570;9.718;2023-02-28T00:03:52;1.92;;;1.50;;
11131;SDS011;5620;53.570;9.718;2023-02-28T00:06:19;2.05;;;1.90;;
11131;SDS011;5620;53.570;9.718;2023-02-28T00:08:47;2.55;;;1.30;;
11131;SDS011;5620;53.570;9.718;2023-02-28T00:11:14;2.67;;;1.57;;
11131;SDS011;5620;53.570;9.718;2023-02-28T00:13:46;2.67;;;1.45;;
11131;SDS011;5620;53.570;9.718;2023-02-28T00:16:15;1.42;;;1.10;;
11131;SDS011;5620;53.570;9.718;2023-02-28T00:18:45;3.55;;;1.55;;
11131;SDS011;5620;53.570;9.718;2023-02-28T00:21:12;4.13;;;1.20;;
11131;SDS011;5620;53.570;9.718;2023-02-28T00:23:38;3.80;;;1.50;;
11131;SDS011;5620;53.570;9.718;2023-02-28T00:26:04;1.98;;;1.35;;
11131;SDS011;5620;53.570;9.718;2023-02-28T00:28:31;4.25;;;1.85;;
11131;SDS011;5620;53.570;9.718;2023-02-28T00:30:57;3.42;;;1.42;;
11131;SDS011;5620;53.570;9.718;2023-02-28T00:33:23;5.05;;;1.70;;
11131;SDS011;5620;53.570;9.718;2023-02-28T00:36:03;2.10;;;1.52;;
11131;SDS011;5620;53.570;9.718;2023-02-28T00:38:33;4.33;;;1.33;;
11131;SDS011;5620;53.570;9.718;2023-02-28T00:40:59;5.18;;;1.60;;
11131;SDS011;5620;53.570;9.718;2023-02-28T00:43:25;1.20;;;0.98;;
11131;SDS011;5620;53.570;9.718;2023-02-28T00:45:52;1.67;;;1.13;;
11131;SDS011;5620;53.570;9.718;2023-02-28T00:48:19;2.25;;;1.73;;
11131;SDS011;5620;53.570;9.718;2023-02-28T00:50:44;5.57;;;1.90;;
11131;SDS011;5620;53.570;9.718;2023-02-28T00:53:13;1.58;;;1.25;;
11131;SDS011;5620;53.570;9.718;2023-02-28T00:55:40;3.78;;;1.38;;
11131;SDS011;5620;53.570;9.718;2023-02-28T00:58:06;2.97;;;1.23;;
11131;SDS011;5620;53.570;9.718;2023-02-28T01:00:34;2.63;;;1.55;;
11131;SDS011;5620;53.570;9.718;2023-02-28T01:02:59;1.25;;;0.88;;
11131;SDS011;5620;53.570;9.718;2023-02-28T01:05:26;5.03;;;1.45;;
11131;SDS011;5620;53.570;9.718;2023-02-28T01:07:52;2.17;;;1.17;;
11131;SDS011;5620;53.570;9.718;2023-02-28T01:10:19;3.38;;;1.30;;
11131;SDS011;5620;53.570;9.718;2023-02-28T01:12:45;1.93;;;1.27;;
11131;SDS011;5620;53.570;9.718;2023-02-28T01:15:11;1.83;;;1.15;;
11131;SDS011;5620;53.570;9.718;2023-02-28T01:17:36;3.77;;;1.50;;
11131;SDS011;5620;53.570;9.718;2023-02-28T01:20:03;2.63;;;1.38;;
11131;SDS011;5620;53.570;9.718;2023-02-28T01:22:30;1.88;;;1.77;;
11131;SDS011;5620;53.570;9.718;2023-02-28T01:24:55;2.40;;;1.35;;
11131;SDS011;5620;53.570;9.718;2023-02-28T01:27:23;1.70;;;0.90;;
11131;SDS011;5620;53.570;9.718;2023-02-28T01:29:50;3.35;;;1.23;;
11131;SDS011;5620;53.570;9.718;2023-02-28T01:32:16;1.42;;;1.33;;
11131;SDS011;5620;53.570;9.718;2023-02-28T01:34:41;1.10;;;1.00;;
11131;SDS011;5620;53.570;9.718;2023-02-28T01:37:08;5.07;;;1.50;;
11131;SDS011;5620;53.570;9.718;2023-02-28T01:39:35;2.88;;;1.42;;
11131;SDS011;5620;53.570;9.718;2023-02-28T01:42:02;4.47;;;1.83;;
11131;SDS011;5620;53.570;9.718;2023-02-28T01:47:33;1.77;;;1.48;;
11131;SDS011;5620;53.570;9.718;2023-02-28T01:50:04;2.13;;;1.33;;
11131;SDS011;5620;53.570;9.718;2023-02-28T01:52:35;3.80;;;1.38;;
11131;SDS011;5620;53.570;9.718;2023-02-28T01:55:03;2.50;;;1.55;;
11131;SDS011;5620;53.570;9.718;2023-02-28T01:57:36;3.15;;;1.40;;
11131;SDS011;5620;53.570;9.718;2023-02-28T02:00:12;3.55;;;1.30;;
11131;SDS011;5620;53.570;9.718;2023-02-28T02:02:47;3.07;;;1.37;;
11131;SDS011;5620;53.570;9.718;2023-02-28T02:05:23;1.05;;;0.80;;
11131;SDS011;5620;53.570;9.718;2023-02-28T02:07:52;3.30;;;1.95;;
11131;SDS011;5620;53.570;9.718;2023-02-28T02:13:22;2.13;;;1.60;;
11131;SDS011;5620;53.570;9.718;2023-02-28T02:22:12;1.45;;;1.35;;
11131;SDS011;5620;53.570;9.718;2023-02-28T02:25:23;5.43;;;1.58;;
11131;SDS011;5620;53.570;9.718;2023-02-28T02:37:02;1.85;;;1.30;;
11131;SDS011;5620;53.570;9.718;2023-02-28T02:42:47;1.90;;;1.15;;
11131;SDS011;5620;53.570;9.718;2023-02-28T02:48:18;1.98;;;1.40;;
11131;SDS011;5620;53.570;9.718;2023-02-28T02:50:53;2.10;;;1.30;;
11131;SDS011;5620;53.570;9.718;2023-02-28T02:53:21;3.13;;;1.38;;
11131;SDS011;5620;53.570;9.718;2023-02-28T02:55:53;4.88;;;1.27;;
11131;SDS011;5620;53.570;9.718;2023-02-28T02:58:25;3.73;;;1.27;;
11131;SDS011;5620;53.570;9.718;2023-02-28T03:00:57;1.05;;;0.93;;
11131;SDS011;5620;53.570;9.718;2023-02-28T03:03:30;1.60;;;1.50;;
11131;SDS011;5620;53.570;9.718;2023-02-28T03:06:02;2.42;;;1.05;;
11131;SDS011;5620;53.570;9.718;2023-02-28T03:08:31;4.55;;;1.08;;
11131;SDS011;5620;53.570;9.718;2023-02-28T03:11:01;1.60;;;1.50;;
11131;SDS011;5620;53.570;9.718;2023-02-28T03:16:36;1.63;;;1.00;;
11131;SDS011;5620;53.570;9.718;2023-02-28T03:34:10;2.33;;;0.98;;
11131;SDS011;5620;53.570;9.718;2023-02-28T03:36:58;1.40;;;1.27;;
11131;SDS011;5620;53.570;9.718;2023-02-28T03:39:45;1.93;;;1.73;;
11131;SDS011;5620;53.570;9.718;2023-02-28T03:42:23;1.63;;;1.23;;
11131;SDS011;5620;53.570;9.718;2023-02-28T03:45:01;1.95;;;1.70;;
11131;SDS011;5620;53.570;9.718;2023-02-28T03:50:35;1.67;;;1.05;;
11131;SDS011;5620;53.570;9.718;2023-02-28T03:55:59;1.60;;;1.50;;
11131;SDS011;5620;53.570;9.718;2023-02-28T04:01:15;6.05;;;1.55;;
11131;SDS011;5620;53.570;9.718;2023-02-28T04:04:03;10.15;;;2.35;;
11131;SDS011;5620;53.570;9.718;2023-02-28T04:06:33;1.97;;;1.87;;
11131;SDS011;5620;53.570;9.718;2023-02-28T04:09:03;2.78;;;1.98;;
11131;SDS011;5620;53.570;9.718;2023-02-28T04:14:17;2.47;;;1.75;;
11131;SDS011;5620;53.570;9.718;2023-02-28T04:16:44;2.47;;;1.90;;
11131;SDS011;5620;53.570;9.718;2023-02-28T04:19:11;4.40;;;2.00;;
11131;SDS011;5620;53.570;9.718;2023-02-28T04:21:39;2.00;;;1.52;;
11131;SDS011;5620;53.570;9.718;2023-02-28T04:24:11;2.45;;;2.28;;
11131;SDS011;5620;53.570;9.718;2023-02-28T04:26:46;2.90;;;2.50;;
11131;SDS011;5620;53.570;9.718;2023-02-28T04:29:17;1.70;;;1.15;;
11131;SDS011;5620;53.570;9.718;2023-02-28T04:31:46;2.00;;;1.67;;
11131;SDS011;5620;53.570;9.718;2023-02-28T04:34:13;4.63;;;1.77;;
11131;SDS011;5620;53.570;9.718;2023-02-28T04:36:39;3.72;;;1.95;;
11131;SDS011;5620;53.570;9.718;2023-02-28T04:39:05;3.00;;;1.40;;
11131;SDS011;5620;53.570;9.718;2023-02-28T04:41:30;1.75;;;1.30;;
11131;SDS011;5620;53.570;9.718;2023-02-28T04:43:57;6.18;;;2.28;;
11131;SDS011;5620;53.570;9.718;2023-02-28T04:46:29;3.50;;;1.87;;
11131;SDS011;5620;53.570;9.718;2023-02-28T04:48:56;2.63;;;2.05;;
11131;SDS011;5620;53.570;9.718;2023-02-28T04:51:22;2.28;;;1.70;;
11131;SDS011;5620;53.570;9.718;2023-02-28T04:53:47;7.83;;;1.37;;
11131;SDS011;5620;53.570;9.718;2023-02-28T04:56:17;4.57;;;1.98;;
11131;SDS011;5620;53.570;9.718;2023-02-28T04:58:44;1.38;;;1.27;;
11131;SDS011;5620;53.570;9.718;2023-02-28T05:01:25;1.90;;;1.70;;
11131;SDS011;5620;53.570;9.718;2023-02-28T05:03:56;2.10;;;2.00;;
11131;SDS011;5620;53.570;9.718;2023-02-28T05:06:26;2.80;;;2.25;;
11131;SDS011;5620;53.570;9.718;2023-02-28T05:08:57;2.28;;;2.08;;
11131;SDS011;5620;53.570;9.718;2023-02-28T05:14:06;2.67;;;2.17;;
11131;SDS011;5620;53.570;9.718;2023-02-28T05:16:37;3.70;;;2.60;;
11131;SDS011;5620;53.570;9.718;2023-02-28T05:19:04;2.50;;;2.30;;
11131;SDS011;5620;53.570;9.718;2023-02-28T05:24:17;2.93;;;2.17;;
11131;SDS011;5620;53.570;9.718;2023-02-28T05:26:43;1.50;;;1.35;;
11131;SDS011;5620;53.570;9.718;2023-02-28T05:29:10;4.38;;;3.88;;
11131;SDS011;5620;53.570;9.718;2023-02-28T05:31:37;2.17;;;1.93;;
11131;SDS011;5620;53.570;9.718;2023-02-28T05:34:06;3.83;;;3.40;;
11131;SDS011;5620;53.570;9.718;2023-02-28T05:36:33;3.22;;;2.60;;
11131;SDS011;5620;53.570;9.718;2023-02-28T05:39:04;2.40;;;2.00;;
11131;SDS011;5620;53.570;9.718;2023-02-28T05:41:31;2.33;;;2.22;;
11131;SDS011;5620;53.570;9.718;2023-02-28T05:43:58;1.77;;;1.67;;
11131;SDS011;5620;53.570;9.718;2023-02-28T05:46:25;3.45;;;2.22;;
11131;SDS011;5620;53.570;9.718;2023-02-28T05:48:50;2.03;;;1.83;;
11131;SDS011;5620;53.570;9.718;2023-02-28T05:51:17;1.73;;;1.63;;
11131;SDS011;5620;53.570;9.718;2023-02-28T05:53:44;3.60;;;3.30;;
11131;SDS011;5620;53.570;9.718;2023-02-28T05:56:13;2.33;;;2.17;;
11131;SDS011;5620;53.570;9.718;2023-02-28T05:58:39;2.75;;;2.55;;
11131;SDS011;5620;53.570;9.718;2023-02-28T06:04:07;4.75;;;1.05;;
11131;SDS011;5620;53.570;9.718;2023-02-28T06:06:36;2.10;;;1.90;;
11131;SDS011;5620;53.570;9.718;2023-02-28T06:09:03;3.33;;;2.25;;
11131;SDS011;5620;53.570;9.718;2023-02-28T06:11:29;1.95;;;1.85;;
11131;SDS011;5620;53.570;9.718;2023-02-28T06:13:57;4.80;;;1.70;;
11131;SDS011;5620;53.570;9.718;2023-02-28T06:16:24;2.17;;;2.08;;
11131;SDS011;5620;53.570;9.718;2023-02-28T06:18:52;1.65;;;1.45;;
11131;SDS011;5620;53.570;9.718;2023-02-28T06:21:17;2.28;;;2.17;;
11131;SDS011;5620;53.570;9.718;2023-02-28T06:23:44;2.73;;;2.10;;
11131;SDS011;5620;53.570;9.718;2023-02-28T06:26:11;3.33;;;2.83;;
11131;SDS011;5620;53.570;9.718;2023-02-28T06:28:36;2.63;;;2.43;;
11131;SDS011;5620;53.570;9.718;2023-02-28T06:31:07;2.95;;;1.50;;
11131;SDS011;5620;53.570;9.718;2023-02-28T06:33:37;2.75;;;1.70;;
11131;SDS011;5620;53.570;9.718;2023-02-28T06:36:04;1.85;;;1.75;;
11131;SDS011;5620;53.570;9.718;2023-02-28T06:38:34;1.77;;;1.67;;
11131;SDS011;5620;53.570;9.718;2023-02-28T06:41:00;3.23;;;1.70;;
11131;SDS011;5620;53.570;9.718;2023-02-28T06:43:28;3.35;;;1.75;;
11131;SDS011;5620;53.570;9.718;2023-02-28T06:45:59;2.42;;;2.28;;
11131;SDS011;5620;53.570;9.718;2023-02-28T06:48:27;1.77;;;1.60;;
11131;SDS011;5620;53.570;9.718;2023-02-28T06:51:08;6.70;;;2.45;;
11131;SDS011;5620;53.570;9.718;2023-02-28T06:53:43;19.40;;;7.63;;
11131;SDS011;5620;53.570;9.718;2023-02-28T06:56:11;3.22;;;1.73;;
11131;SDS011;5620;53.570;9.718;2023-02-28T06:58:38;3.40;;;2.15;;
11131;SDS011;5620;53.570;9.718;2023-02-28T07:01:04;2.38;;;2.28;;
11131;SDS011;5620;53.570;9.718;2023-02-28T07:03:30;1.93;;;1.83;;
11131;SDS011;5620;53.570;9.718;2023-02-28T07:05:58;5.72;;;2.22;;
11131;SDS011;5620;53.570;9.718;2023-02-28T07:08:25;3.47;;;1.67;;
11131;SDS011;5620;53.570;9.718;2023-02-28T07:10:52;1.50;;;1.33;;
11131;SDS011;5620;53.570;9.718;2023-02-28T07:13:21;2.30;;;1.60;;
11131;SDS011;5620;53.570;9.718;2023-02-28T07:15:59;1.57;;;1.47;;
11131;SDS011;5620;53.570;9.718;2023-02-28T07:18:27;7.13;;;1.98;;
11131;SDS011;5620;53.570;9.718;2023-02-28T07:20:53;3.60;;;2.33;;
11131;SDS011;5620;53.570;9.718;2023-02-28T07:23:20;14.73;;;1.90;;
11131;SDS011;5620;53.570;9.718;2023-02-28T07:25:46;15.87;;;1.63;;
11131;SDS011;5620;53.570;9.718;2023-02-28T07:28:14;5.90;;;1.42;;
11131;SDS011;5620;53.570;9.718;2023-02-28T07:30:41;1.85;;;1.75;;
11131;SDS011;5620;53.570;9.718;2023-02-28T07:33:09;3.20;;;2.55;;
11131;SDS011;5620;53.570;9.718;2023-02-28T07:35:36;1.73;;;1.63;;
11131;SDS011;5620;53.570;9.718;2023-02-28T07:38:03;2.05;;;1.90;;
11131;SDS011;5620;53.570;9.718;2023-02-28T07:40:30;2.85;;;1.77;;
11131;SDS011;5620;53.570;9.718;2023-02-28T07:42:58;3.53;;;1.58;;
11131;SDS011;5620;53.570;9.718;2023-02-28T07:45:27;2.42;;;1.83;;
11131;SDS011;5620;53.570;9.718;2023-02-28T07:47:54;2.30;;;1.40;;
11131;SDS011;5620;53.570;9.718;2023-02-28T07:50:22;3.55;;;1.80;;
11131;SDS011;5620;53.570;9.718;2023-02-28T07:52:49;3.08;;;2.08;;
11131;SDS011;5620;53.570;9.718;2023-02-28T07:55:16;3.25;;;1.52;;
11131;SDS011;5620;53.570;9.718;2023-02-28T07:57:43;3.55;;;2.10;;
11131;SDS011;5620;53.570;9.718;2023-02-28T08:00:10;6.43;;;3.00;;
11131;SDS011;5620;53.570;9.718;2023-02-28T08:02:38;3.33;;;2.80;;
11131;SDS011;5620;53.570;9.718;2023-02-28T08:05:04;3.90;;;2.00;;
11131;SDS011;5620;53.570;9.718;2023-02-28T08:07:32;2.47;;;2.38;;
11131;SDS011;5620;53.570;9.718;2023-02-28T08:09:59;2.25;;;2.10;;
11131;SDS011;5620;53.570;9.718;2023-02-28T08:12:25;2.35;;;2.13;;
11131;SDS011;5620;53.570;9.718;2023-02-28T08:14:52;1.92;;;1.75;;
11131;SDS011;5620;53.570;9.718;2023-02-28T08:17:19;1.42;;;1.33;;
11131;SDS011;5620;53.570;9.718;2023-02-28T08:19:46;2.95;;;2.03;;
11131;SDS011;5620;53.570;9.718;2023-02-28T08:22:13;2.00;;;1.90;;
11131;SDS011;5620;53.570;9.718;2023-02-28T08:24:39;2.55;;;1.73;;
11131;SDS011;5620;53.570;9.718;2023-02-28T08:27:07;2.25;;;2.08;;
11131;SDS011;5620;53.570;9.718;2023-02-28T08:29:32;3.93;;;1.30;;
11131;SDS011;5620;53.570;9.718;2023-02-28T08:31:58;5.25;;;1.90;;
11131;SDS011;5620;53.570;9.718;2023-02-28T08:34:26;2.23;;;2.00;;
11131;SDS011;5620;53.570;9.718;2023-02-28T08:36:54;1.92;;;1.83;;
11131;SDS011;5620;53.570;9.718;2023-02-28T08:39:21;1.80;;;1.65;;
11131;SDS011;5620;53.570;9.718;2023-02-28T08:41:49;2.72;;;2.17;;
11131;SDS011;5620;53.570;9.718;2023-02-28T08:44:17;5.32;;;2.40;;
11131;SDS011;5620;53.570;9.718;2023-02-28T08:46:43;2.00;;;1.90;;
11131;SDS011;5620;53.570;9.718;2023-02-28T08:49:09;4.63;;;1.20;;
11131;SDS011;5620;53.570;9.718;2023-02-28T08:51:35;1.60;;;1.50;;
11131;SDS011;5620;53.570;9.718;2023-02-28T08:54:01;1.30;;;1.20;;
11131;SDS011;5620;53.570;9.718;2023-02-28T08:56:28;2.28;;;1.65;;
11131;SDS011;5620;53.570;9.718;2023-02-28T08:58:55;3.77;;;1.63;;
11131;SDS011;5620;53.570;9.718;2023-02-28T09:01:23;1.48;;;1.08;;
11131;SDS011;5620;53.570;9.718;2023-02-28T09:03:50;2.08;;;1.98;;
11131;SDS011;5620;53.570;9.718;2023-02-28T09:06:18;2.13;;;2.03;;
11131;SDS011;5620;53.570;9.718;2023-02-28T09:08:44;2.92;;;1.88;;
11131;SDS011;5620;53.570;9.718;2023-02-28T09:11:12;1.93;;;1.30;;
11131;SDS011;5620;53.570;9.718;2023-02-28T09:13:38;1.98;;;1.80;;
11131;SDS011;5620;53.570;9.718;2023-02-28T09:16:06;2.38;;;1.50;;
11131;SDS011;5620;53.570;9.718;2023-02-28T09:18:36;2.03;;;1.67;;
11131;SDS011;5620;53.570;9.718;2023-02-28T09:21:09;2.87;;;2.10;;
11131;SDS011;5620;53.570;9.718;2023-02-28T09:23:37;2.63;;;1.73;;
11131;SDS011;5620;53.570;9.718;2023-02-28T09:26:07;2.10;;;1.13;;
11131;SDS011;5620;53.570;9.718;2023-02-28T09:28:38;1.90;;;1.80;;
11131;SDS011;5620;53.570;9.718;2023-02-28T09:31:05;7.72;;;2.15;;
11131;SDS011;5620;53.570;9.718;2023-02-28T09:33:33;5.60;;;1.70;;
11131;SDS011;5620;53.570;9.718;2023-02-28T09:36:00;2.55;;;1.27;;
11131;SDS011;5620;53.570;9.718;2023-02-28T09:38:28;3.25;;;2.03;;
11131;SDS011;5620;53.570;9.718;2023-02-28T09:41:15;3.33;;;1.20;;
11131;SDS011;5620;53.570;9.718;2023-02-28T09:43:45;1.70;;;1.15;;
11131;SDS011;5620;53.570;9.718;2023-02-28T09:46:28;1.70;;;1.60;;
11131;SDS011;5620;53.570;9.718;2023-02-28T09:49:07;1.70;;;1.40;;
11131;SDS011;5620;53.570;9.718;2023-02-28T09:51:47;1.50;;;1.40;;
11131;SDS011;5620;53.570;9.718;2023-02-28T09:54:46;2.60;;;1.57;;
11131;SDS011;5620;53.570;9.718;2023-02-28T09:57:33;2.88;;;1.10;;
11131;SDS011;5620;53.570;9.718;2023-02-28T10:00:18;1.52;;;1.20;;
11131;SDS011;5620;53.570;9.718;2023-02-28T10:08:39;1.03;;;0.93;;
11131;SDS011;5620;53.570;9.718;2023-02-28T10:11:16;1.70;;;1.10;;
11131;SDS011;5620;53.570;9.718;2023-02-28T10:16:34;0.80;;;0.80;;
11131;SDS011;5620;53.570;9.718;2023-02-28T10:22:01;0.90;;;0.90;;
11131;SDS011;5620;53.570;9.718;2023-02-28T10:24:41;2.90;;;0.88;;
11131;SDS011;5620;53.570;9.718;2023-02-28T10:29:44;0.80;;;0.80;;
11131;SDS011;5620;53.570;9.718;2023-02-28T10:32:13;1.48;;;0.90;;
11131;SDS011;5620;53.570;9.718;2023-02-28T10:34:50;1.67;;;1.57;;
11131;SDS011;5620;53.570;9.718;2023-02-28T10:37:40;0.80;;;0.80;;
11131;SDS011;5620;53.570;9.718;2023-02-28T10:40:50;1.20;;;0.90;;
11131;SDS011;5620;53.570;9.718;2023-02-28T10:46:34;2.45;;;1.15;;
11131;SDS011;5620;53.570;9.718;2023-02-28T10:49:12;0.80;;;0.80;;
11131;SDS011;5620;53.570;9.718;2023-02-28T10:51:49;1.83;;;1.23;;
11131;SDS011;5620;53.570;9.718;2023-02-28T10:54:20;3.35;;;2.05;;
11131;SDS011;5620;53.570;9.718;2023-02-28T10:57:33;2.22;;;1.35;;
11131;SDS011;5620;53.570;9.718;2023-02-28T11:02:42;3.63;;;2.07;;
11131;SDS011;5620;53.570;9.718;2023-02-28T11:08:17;1.70;;;1.60;;
11131;SDS011;5620;53.570;9.718;2023-02-28T11:10:47;1.45;;;1.35;;
11131;SDS011;5620;53.570;9.718;2023-02-28T11:13:21;1.60;;;1.50;;
11131;SDS011;5620;53.570;9.718;2023-02-28T11:16:05;1.30;;;1.20;;
11131;SDS011;5620;53.570;9.718;2023-02-28T11:21:15;1.25;;;0.98;;
11131;SDS011;5620;53.570;9.718;2023-02-28T11:23:46;1.13;;;0.80;;
11131;SDS011;5620;53.570;9.718;2023-02-28T11:26:15;1.35;;;0.90;;
11131;SDS011;5620;53.570;9.718;2023-02-28T11:29:08;2.63;;;0.50;;
11131;SDS011;5620;53.570;9.718;2023-02-28T11:31:39;1.65;;;0.60;;
11131;SDS011;5620;53.570;9.718;2023-02-28T11:34:22;0.60;;;0.60;;
11131;SDS011;5620;53.570;9.718;2023-02-28T11:36:49;0.88;;;0.50;;
11131;SDS011;5620;53.570;9.718;2023-02-28T11:39:21;1.02;;;0.50;;
11131;SDS011;5620;53.570;9.718;2023-02-28T11:47:38;1.00;;;0.50;;
11131;SDS011;5620;53.570;9.718;2023-02-28T11:50:51;1.00;;;0.45;;
11131;SDS011;5620;53.570;9.718;2023-02-28T11:56:36;2.03;;;0.57;;
11131;SDS011;5620;53.570;9.718;2023-02-28T12:10:25;0.83;;;0.50;;
11131;SDS011;5620;53.570;9.718;2023-02-28T12:26:39;1.65;;;0.50;;
11131;SDS011;5620;53.570;9.718;2023-02-28T12:32:16;0.90;;;0.40;;
11131;SDS011;5620;53.570;9.718;2023-02-28T12:37:56;0.73;;;0.50;;
11131;SDS011;5620;53.570;9.718;2023-02-28T12:40:27;1.00;;;0.40;;
11131;SDS011;5620;53.570;9.718;2023-02-28T12:43:10;2.28;;;0.80;;
11131;SDS011;5620;53.570;9.718;2023-02-28T12:51:17;1.20;;;1.00;;
11131;SDS011;5620;53.570;9.718;2023-02-28T12:54:04;2.03;;;1.00;;
11131;SDS011;5620;53.570;9.718;2023-02-28T12:56:56;1.02;;;0.80;;
11131;SDS011;5620;53.570;9.718;2023-02-28T13:11:34;4.95;;;0.80;;
11131;SDS011;5620;53.570;9.718;2023-02-28T13:14:04;0.98;;;0.52;;
11131;SDS011;5620;53.570;9.718;2023-02-28T13:25:01;25.85;;;1.48;;
11131;SDS011;5620;53.570;9.718;2023-02-28T13:27:50;2.58;;;0.52;;
11131;SDS011;5620;53.570;9.718;2023-02-28T13:36:23;0.80;;;0.50;;
11131;SDS011;5620;53.570;9.718;2023-02-28T13:38:56;2.53;;;0.70;;
11131;SDS011;5620;53.570;9.718;2023-02-28T13:41:40;2.42;;;0.57;;
11131;SDS011;5620;53.570;9.718;2023-02-28T13:44:22;2.20;;;0.55;;
11131;SDS011;5620;53.570;9.718;2023-02-28T13:49:23;2.22;;;0.50;;
11131;SDS011;5620;53.570;9.718;2023-02-28T14:09:38;0.90;;;0.60;;
11131;SDS011;5620;53.570;9.718;2023-02-28T14:18:14;2.65;;;0.60;;
11131;SDS011;5620;53.570;9.718;2023-02-28T14:21:02;3.60;;;0.77;;
11131;SDS011;5620;53.570;9.718;2023-02-28T14:37:45;1.45;;;0.63;;
11131;SDS011;5620;53.570;9.718;2023-02-28T14:40:31;5.70;;;0.93;;
11131;SDS011;5620;53.570;9.718;2023-02-28T14:43:05;1.42;;;0.50;;
11131;SDS011;5620;53.570;9.718;2023-02-28T14:45:48;1.00;;;0.65;;
11131;SDS011;5620;53.570;9.718;2023-02-28T14:48:23;1.15;;;0.65;;
11131;SDS011;5620;53.570;9.718;2023-02-28T14:50:51;1.00;;;0.77;;
11131;SDS011;5620;53.570;9.718;2023-02-28T14:53:30;3.17;;;0.80;;
11131;SDS011;5620;53.570;9.718;2023-02-28T14:56:02;0.90;;;0.70;;
11131;SDS011;5620;53.570;9.718;2023-02-28T14:58:32;3.72;;;0.98;;
11131;SDS011;5620;53.570;9.718;2023-02-28T15:01:03;1.23;;;0.75;;
11131;SDS011;5620;53.570;9.718;2023-02-28T15:06:36;2.73;;;1.60;;
11131;SDS011;5620;53.570;9.718;2023-02-28T15:09:07;3.38;;;1.30;;
11131;SDS011;5620;53.570;9.718;2023-02-28T15:11:51;1.05;;;0.68;;
11131;SDS011;5620;53.570;9.718;2023-02-28T15:14:18;0.73;;;0.50;;
11131;SDS011;5620;53.570;9.718;2023-02-28T15:16:57;2.25;;;0.80;;
11131;SDS011;5620;53.570;9.718;2023-02-28T15:19:32;1.17;;;0.80;;
11131;SDS011;5620;53.570;9.718;2023-02-28T15:22:12;1.27;;;0.60;;
11131;SDS011;5620;53.570;9.718;2023-02-28T15:24:45;2.92;;;0.93;;
11131;SDS011;5620;53.570;9.718;2023-02-28T15:27:18;2.53;;;1.42;;
11131;SDS011;5620;53.570;9.718;2023-02-28T15:30:06;1.30;;;1.02;;
11131;SDS011;5620;53.570;9.718;2023-02-28T15:33:01;1.90;;;0.97;;
11131;SDS011;5620;53.570;9.718;2023-02-28T15:35:30;1.35;;;0.90;;
11131;SDS011;5620;53.570;9.718;2023-02-28T15:38:01;1.35;;;1.00;;
11131;SDS011;5620;53.570;9.718;2023-02-28T15:40:45;3.13;;;1.50;;
11131;SDS011;5620;53.570;9.718;2023-02-28T15:46:12;1.10;;;0.95;;
11131;SDS011;5620;53.570;9.718;2023-02-28T15:48:59;1.20;;;1.10;;
11131;SDS011;5620;53.570;9.718;2023-02-28T15:51:36;1.45;;;1.30;;
11131;SDS011;5620;53.570;9.718;2023-02-28T15:54:05;2.22;;;1.38;;
11131;SDS011;5620;53.570;9.718;2023-02-28T15:59:22;1.85;;;1.52;;
11131;SDS011;5620;53.570;9.718;2023-02-28T16:07:39;1.30;;;1.20;;
11131;SDS011;5620;53.570;9.718;2023-02-28T16:10:09;2.20;;;1.73;;
11131;SDS011;5620;53.570;9.718;2023-02-28T16:12:39;2.47;;;1.50;;
11131;SDS011;5620;53.570;9.718;2023-02-28T16:15:28;3.25;;;1.15;;
11131;SDS011;5620;53.570;9.718;2023-02-28T16:18:11;3.50;;;1.30;;
11131;SDS011;5620;53.570;9.718;2023-02-28T16:20:38;2.15;;;1.50;;
11131;SDS011;5620;53.570;9.718;2023-02-28T16:23:05;2.30;;;1.65;;
11131;SDS011;5620;53.570;9.718;2023-02-28T16:25:42;1.33;;;1.23;;
11131;SDS011;5620;53.570;9.718;2023-02-28T16:28:17;3.67;;;1.33;;
11131;SDS011;5620;53.570;9.718;2023-02-28T16:30:44;4.47;;;2.30;;
11131;SDS011;5620;53.570;9.718;2023-02-28T16:33:11;13.02;;;4.90;;
11131;SDS011;5620;53.570;9.718;2023-02-28T16:35:40;1.63;;;1.52;;
11131;SDS011;5620;53.570;9.718;2023-02-28T16:38:06;4.45;;;1.83;;
11131;SDS011;5620;53.570;9.718;2023-02-28T16:40:34;5.95;;;3.40;;
11131;SDS011;5620;53.570;9.718;2023-02-28T16:43:04;7.50;;;4.82;;
11131;SDS011;5620;53.570;9.718;2023-02-28T16:45:35;12.23;;;6.30;;
11131;SDS011;5620;53.570;9.718;2023-02-28T16:48:03;4.28;;;3.53;;
11131;SDS011;5620;53.570;9.718;2023-02-28T16:50:33;7.03;;;3.72;;
11131;SDS011;5620;53.570;9.718;2023-02-28T16:53:00;2.30;;;2.10;;
11131;SDS011;5620;53.570;9.718;2023-02-28T16:55:27;3.25;;;3.03;;
11131;SDS011;5620;53.570;9.718;2023-02-28T16:57:58;5.80;;;2.55;;
11131;SDS011;5620;53.570;9.718;2023-02-28T17:00:28;7.13;;;3.28;;
11131;SDS011;5620;53.570;9.718;2023-02-28T17:02:55;3.00;;;2.63;;
11131;SDS011;5620;53.570;9.718;2023-02-28T17:05:24;3.08;;;2.22;;
11131;SDS011;5620;53.570;9.718;2023-02-28T17:08:04;4.10;;;3.70;;
11131;SDS011;5620;53.570;9.718;2023-02-28T17:10:32;4.00;;;3.70;;
11131;SDS011;5620;53.570;9.718;2023-02-28T17:12:59;7.47;;;5.00;;
11131;SDS011;5620;53.570;9.718;2023-02-28T17:15:24;7.03;;;5.40;;
11131;SDS011;5620;53.570;9.718;2023-02-28T17:17:52;10.98;;;5.28;;
11131;SDS011;5620;53.570;9.718;2023-02-28T17:20:20;13.18;;;7.20;;
11131;SDS011;5620;53.570;9.718;2023-02-28T17:22:52;18.75;;;8.07;;
11131;SDS011;5620;53.570;9.718;2023-02-28T17:25:26;15.83;;;7.37;;
11131;SDS011;5620;53.570;9.718;2023-02-28T17:27:54;13.30;;;8.40;;
11131;SDS011;5620;53.570;9.718;2023-02-28T17:33:03;11.63;;;6.15;;
11131;SDS011;5620;53.570;9.718;2023-02-28T17:35:29;8.45;;;5.68;;
11131;SDS011;5620;53.570;9.718;2023-02-28T17:37:57;7.30;;;5.73;;
11131;SDS011;5620;53.570;9.718;2023-02-28T17:40:25;10.05;;;5.05;;
11131;SDS011;5620;53.570;9.718;2023-02-28T17:42:53;31.60;;;16.88;;
11131;SDS011;5620;53.570;9.718;2023-02-28T17:45:20;20.33;;;9.88;;
11131;SDS011;5620;53.570;9.718;2023-02-28T17:47:47;7.88;;;4.70;;
11131;SDS011;5620;53.570;9.718;2023-02-28T17:50:20;6.50;;;3.73;;
11131;SDS011;5620;53.570;9.718;2023-02-28T17:52:46;4.35;;;3.95;;
11131;SDS011;5620;53.570;9.718;2023-02-28T17:55:17;8.75;;;4.85;;
11131;SDS011;5620;53.570;9.718;2023-02-28T17:57:46;4.85;;;4.10;;
11131;SDS011;5620;53.570;9.718;2023-02-28T18:00:13;6.00;;;3.47;;
11131;SDS011;5620;53.570;9.718;2023-02-28T18:02:43;6.93;;;3.50;;
11131;SDS011;5620;53.570;9.718;2023-02-28T18:05:12;7.22;;;3.60;;
11131;SDS011;5620;53.570;9.718;2023-02-28T18:07:39;6.78;;;3.33;;
11131;SDS011;5620;53.570;9.718;2023-02-28T18:10:07;4.95;;;3.45;;
11131;SDS011;5620;53.570;9.718;2023-02-28T18:12:42;3.85;;;3.42;;
11131;SDS011;5620;53.570;9.718;2023-02-28T18:15:08;4.90;;;4.00;;
11131;SDS011;5620;53.570;9.718;2023-02-28T18:17:35;13.48;;;8.55;;
11131;SDS011;5620;53.570;9.718;2023-02-28T18:20:02;11.65;;;7.13;;
11131;SDS011;5620;53.570;9.718;2023-02-28T18:22:28;12.18;;;5.47;;
11131;SDS011;5620;53.570;9.718;2023-02-28T18:24:55;7.47;;;3.33;;
11131;SDS011;5620;53.570;9.718;2023-02-28T18:27:22;3.42;;;2.85;;
11131;SDS011;5620;53.570;9.718;2023-02-28T18:29:49;5.53;;;2.47;;
11131;SDS011;5620;53.570;9.718;2023-02-28T18:32:17;6.28;;;4.68;;
11131;SDS011;5620;53.570;9.718;2023-02-28T18:34:43;11.97;;;3.80;;
11131;SDS011;5620;53.570;9.718;2023-02-28T18:37:11;4.47;;;3.17;;
11131;SDS011;5620;53.570;9.718;2023-02-28T18:39:38;10.27;;;3.92;;
11131;SDS011;5620;53.570;9.718;2023-02-28T18:42:07;3.95;;;3.55;;
11131;SDS011;5620;53.570;9.718;2023-02-28T18:44:35;4.18;;;3.00;;
11131;SDS011;5620;53.570;9.718;2023-02-28T18:47:01;3.53;;;2.70;;
11131;SDS011;5620;53.570;9.718;2023-02-28T18:49:30;4.55;;;3.58;;
11131;SDS011;5620;53.570;9.718;2023-02-28T18:52:00;5.53;;;3.33;;
11131;SDS011;5620;53.570;9.718;2023-02-28T18:54:28;3.33;;;3.03;;
11131;SDS011;5620;53.570;9.718;2023-02-28T18:56:55;8.73;;;3.08;;
11131;SDS011;5620;53.570;9.718;2023-02-28T18:59:22;5.13;;;3.47;;
11131;SDS011;5620;53.570;9.718;2023-02-28T19:01:49;5.80;;;3.55;;
11131;SDS011;5620;53.570;9.718;2023-02-28T19:04:16;6.47;;;3.17;;